sensor_id;sensor_type;location;lat;lon;timestamp;temperature;humidity
68011;DHT22;54794;48.348;7.878;2022-08-19T00:02:07;23.70;69.50
68011;DHT22;54794;48.348;7.878;2022-08-19T00:04:35;23.70;69.50
68011;DHT22;54794;48.348;7.878;2022-08-19T00:07:04;23.70;69.50
68011;DHT22;54794;48.348;7.878;2022-08-19T00:09:32;23.70;69.70
68011;DHT22;54794;48.348;7.878;2022-08-19T00:11:59;23.70;69.70
68011;DHT22;54794;48.348;7.878;2022-08-19T00:14:27;23.70;69.60
68011;DHT22;54794;48.348;7.878;2022-08-19T00:16:58;23.70;69.50
68011;DHT22;54794;48.348;7.878;2022-08-19T00:19:26;23.70;69.20
68011;DHT22;54794;48.348;7.878;2022-08-19T00:21:53;23.70;69.40
68011;DHT22;54794;48.348;7.878;2022-08-19T00:24:21;23.60;69.40
68011;DHT22;54794;48.348;7.878;2022-08-19T00:26:49;23.60;69.40
68011;DHT22;54794;48.348;7.878;2022-08-19T00:29:19;23.60;69.60
68011;DHT22;54794;48.348;7.878;2022-08-19T00:31:47;23.60;69.70
68011;DHT22;54794;48.348;7.878;2022-08-19T00:34:16;23.60;69.70
68011;DHT22;54794;48.348;7.878;2022-08-19T00:36:44;23.60;69.90
68011;DHT22;54794;48.348;7.878;2022-08-19T00:39:12;23.60;69.80
68011;DHT22;54794;48.348;7.878;2022-08-19T00:41:40;23.60;70.20
68011;DHT22;54794;48.348;7.878;2022-08-19T00:44:12;23.60;70.00
68011;DHT22;54794;48.348;7.878;2022-08-19T00:46:44;23.60;70.00
68011;DHT22;54794;48.348;7.878;2022-08-19T00:52:08;23.60;70.10
68011;DHT22;54794;48.348;7.878;2022-08-19T00:54:40;23.60;70.50
68011;DHT22;54794;48.348;7.878;2022-08-19T00:57:11;23.50;70.10
68011;DHT22;54794;48.348;7.878;2022-08-19T00:59:46;23.50;70.30
68011;DHT22;54794;48.348;7.878;2022-08-19T01:02:29;23.60;70.30
68011;DHT22;54794;48.348;7.878;2022-08-19T01:04:57;23.50;70.10
68011;DHT22;54794;48.348;7.878;2022-08-19T01:07:26;23.50;70.30
68011;DHT22;54794;48.348;7.878;2022-08-19T01:10:02;23.50;70.30
68011;DHT22;54794;48.348;7.878;2022-08-19T01:12:30;23.50;70.30
68011;DHT22;54794;48.348;7.878;2022-08-19T01:14:57;23.50;70.40
68011;DHT22;54794;48.348;7.878;2022-08-19T01:17:26;23.50;70.40
68011;DHT22;54794;48.348;7.878;2022-08-19T01:19:54;23.50;70.40
68011;DHT22;54794;48.348;7.878;2022-08-19T01:24:58;23.50;70.60
68011;DHT22;54794;48.348;7.878;2022-08-19T01:27:25;23.50;70.40
68011;DHT22;54794;48.348;7.878;2022-08-19T01:29:56;23.50;70.40
68011;DHT22;54794;48.348;7.878;2022-08-19T01:32:24;23.50;70.50
68011;DHT22;54794;48.348;7.878;2022-08-19T01:35:00;23.50;70.60
68011;DHT22;54794;48.348;7.878;2022-08-19T01:37:28;23.50;70.50
68011;DHT22;54794;48.348;7.878;2022-08-19T01:39:57;23.50;70.50
68011;DHT22;54794;48.348;7.878;2022-08-19T01:42:24;23.40;70.60
68011;DHT22;54794;48.348;7.878;2022-08-19T01:44:56;23.50;70.50
68011;DHT22;54794;48.348;7.878;2022-08-19T01:47:23;23.40;70.60
68011;DHT22;54794;48.348;7.878;2022-08-19T01:49:50;23.40;70.60
68011;DHT22;54794;48.348;7.878;2022-08-19T01:52:17;23.40;70.60
68011;DHT22;54794;48.348;7.878;2022-08-19T01:54:44;23.40;70.60
68011;DHT22;54794;48.348;7.878;2022-08-19T01:57:12;23.40;70.60
68011;DHT22;54794;48.348;7.878;2022-08-19T01:59:42;23.40;70.60
68011;DHT22;54794;48.348;7.878;2022-08-19T02:02:10;23.40;70.70
68011;DHT22;54794;48.348;7.878;2022-08-19T02:04:38;23.40;70.80
68011;DHT22;54794;48.348;7.878;2022-08-19T02:07:06;23.40;70.60
68011;DHT22;54794;48.348;7.878;2022-08-19T02:09:35;23.40;70.70
68011;DHT22;54794;48.348;7.878;2022-08-19T02:12:03;23.30;70.70
68011;DHT22;54794;48.348;7.878;2022-08-19T02:14:32;23.30;70.70
68011;DHT22;54794;48.348;7.878;2022-08-19T02:17:00;23.30;70.80
68011;DHT22;54794;48.348;7.878;2022-08-19T02:19:27;23.30;70.90
68011;DHT22;54794;48.348;7.878;2022-08-19T02:21:54;23.30;70.80
68011;DHT22;54794;48.348;7.878;2022-08-19T02:24:21;23.30;70.90
68011;DHT22;54794;48.348;7.878;2022-08-19T02:26:48;23.30;70.90
68011;DHT22;54794;48.348;7.878;2022-08-19T02:29:15;23.30;70.90
68011;DHT22;54794;48.348;7.878;2022-08-19T02:31:43;23.20;70.80
68011;DHT22;54794;48.348;7.878;2022-08-19T02:34:09;23.20;70.90
68011;DHT22;54794;48.348;7.878;2022-08-19T02:36:37;23.20;71.00
68011;DHT22;54794;48.348;7.878;2022-08-19T02:39:08;23.30;71.00
68011;DHT22;54794;48.348;7.878;2022-08-19T02:41:36;23.20;71.00
68011;DHT22;54794;48.348;7.878;2022-08-19T02:44:04;23.20;71.00
68011;DHT22;54794;48.348;7.878;2022-08-19T02:46:51;23.20;71.00
68011;DHT22;54794;48.348;7.878;2022-08-19T02:49:18;23.20;71.10
68011;DHT22;54794;48.348;7.878;2022-08-19T02:51:46;23.20;71.00
68011;DHT22;54794;48.348;7.878;2022-08-19T02:54:14;23.20;71.10
68011;DHT22;54794;48.348;7.878;2022-08-19T02:56:43;23.20;71.20
68011;DHT22;54794;48.348;7.878;2022-08-19T02:59:11;23.10;71.10
68011;DHT22;54794;48.348;7.878;2022-08-19T03:01:40;23.10;71.10
68011;DHT22;54794;48.348;7.878;2022-08-19T03:04:11;23.10;71.10
68011;DHT22;54794;48.348;7.878;2022-08-19T03:06:44;23.10;71.20
68011;DHT22;54794;48.348;7.878;2022-08-19T03:09:13;23.10;71.30
68011;DHT22;54794;48.348;7.878;2022-08-19T03:11:41;23.10;71.30
68011;DHT22;54794;48.348;7.878;2022-08-19T03:14:08;23.10;71.20
68011;DHT22;54794;48.348;7.878;2022-08-19T03:16:51;23.10;71.20
68011;DHT22;54794;48.348;7.878;2022-08-19T03:19:19;23.10;71.70
68011;DHT22;54794;48.348;7.878;2022-08-19T03:21:47;23.10;71.30
68011;DHT22;54794;48.348;7.878;2022-08-19T03:24:15;23.00;71.30
68011;DHT22;54794;48.348;7.878;2022-08-19T03:26:46;23.00;71.30
68011;DHT22;54794;48.348;7.878;2022-08-19T03:29:16;23.10;71.30
68011;DHT22;54794;48.348;7.878;2022-08-19T03:31:56;23.00;71.30
68011;DHT22;54794;48.348;7.878;2022-08-19T03:34:27;23.00;71.30
68011;DHT22;54794;48.348;7.878;2022-08-19T03:36:58;23.00;71.40
68011;DHT22;54794;48.348;7.878;2022-08-19T03:39:29;23.00;71.40
68011;DHT22;54794;48.348;7.878;2022-08-19T03:41:56;23.00;71.50
68011;DHT22;54794;48.348;7.878;2022-08-19T03:44:44;23.00;71.50
68011;DHT22;54794;48.348;7.878;2022-08-19T03:47:11;23.00;71.50
68011;DHT22;54794;48.348;7.878;2022-08-19T03:49:43;23.00;71.50
68011;DHT22;54794;48.348;7.878;2022-08-19T03:52:10;23.00;71.50
68011;DHT22;54794;48.348;7.878;2022-08-19T03:54:38;23.00;71.50
68011;DHT22;54794;48.348;7.878;2022-08-19T03:57:05;23.00;71.60
68011;DHT22;54794;48.348;7.878;2022-08-19T03:59:35;23.00;71.60
68011;DHT22;54794;48.348;7.878;2022-08-19T04:02:07;23.00;71.60
68011;DHT22;54794;48.348;7.878;2022-08-19T04:04:38;23.00;71.70
68011;DHT22;54794;48.348;7.878;2022-08-19T04:07:07;23.00;71.70
68011;DHT22;54794;48.348;7.878;2022-08-19T04:09:36;22.90;71.60
68011;DHT22;54794;48.348;7.878;2022-08-19T04:12:03;23.00;71.60
68011;DHT22;54794;48.348;7.878;2022-08-19T04:14:32;23.00;71.60
68011;DHT22;54794;48.348;7.878;2022-08-19T04:17:01;23.00;71.30
68011;DHT22;54794;48.348;7.878;2022-08-19T04:19:32;22.90;71.60
68011;DHT22;54794;48.348;7.878;2022-08-19T04:22:01;22.90;71.60
68011;DHT22;54794;48.348;7.878;2022-08-19T04:24:29;22.90;71.70
68011;DHT22;54794;48.348;7.878;2022-08-19T04:26:59;22.90;71.80
68011;DHT22;54794;48.348;7.878;2022-08-19T04:29:27;22.90;71.80
68011;DHT22;54794;48.348;7.878;2022-08-19T04:31:56;22.90;71.90
68011;DHT22;54794;48.348;7.878;2022-08-19T04:34:26;22.90;71.90
68011;DHT22;54794;48.348;7.878;2022-08-19T04:36:57;22.90;71.90
68011;DHT22;54794;48.348;7.878;2022-08-19T04:39:29;22.90;71.90
68011;DHT22;54794;48.348;7.878;2022-08-19T04:42:16;22.90;72.10
68011;DHT22;54794;48.348;7.878;2022-08-19T04:45:04;22.90;71.90
68011;DHT22;54794;48.348;7.878;2022-08-19T04:47:42;22.90;71.90
68011;DHT22;54794;48.348;7.878;2022-08-19T04:50:25;22.90;71.70
68011;DHT22;54794;48.348;7.878;2022-08-19T04:52:53;22.90;71.90
68011;DHT22;54794;48.348;7.878;2022-08-19T04:55:22;22.90;71.90
68011;DHT22;54794;48.348;7.878;2022-08-19T04:57:52;22.90;71.90
68011;DHT22;54794;48.348;7.878;2022-08-19T05:00:19;22.90;72.00
68011;DHT22;54794;48.348;7.878;2022-08-19T05:02:46;22.90;71.90
68011;DHT22;54794;48.348;7.878;2022-08-19T05:05:15;22.90;72.00
68011;DHT22;54794;48.348;7.878;2022-08-19T05:07:42;22.90;72.60
68011;DHT22;54794;48.348;7.878;2022-08-19T05:10:10;22.90;72.10
68011;DHT22;54794;48.348;7.878;2022-08-19T05:12:36;22.90;72.10
68011;DHT22;54794;48.348;7.878;2022-08-19T05:15:05;22.90;72.10
68011;DHT22;54794;48.348;7.878;2022-08-19T05:17:35;22.90;72.10
68011;DHT22;54794;48.348;7.878;2022-08-19T05:20:06;22.90;72.20
68011;DHT22;54794;48.348;7.878;2022-08-19T05:22:52;22.90;72.10
68011;DHT22;54794;48.348;7.878;2022-08-19T05:25:21;22.90;72.10
68011;DHT22;54794;48.348;7.878;2022-08-19T05:27:48;22.90;72.10
68011;DHT22;54794;48.348;7.878;2022-08-19T05:30:16;23.00;72.30
68011;DHT22;54794;48.348;7.878;2022-08-19T05:32:59;23.00;72.30
68011;DHT22;54794;48.348;7.878;2022-08-19T05:35:26;23.00;72.30
68011;DHT22;54794;48.348;7.878;2022-08-19T05:38:00;23.00;72.30
68011;DHT22;54794;48.348;7.878;2022-08-19T05:40:27;23.00;72.30
68011;DHT22;54794;48.348;7.878;2022-08-19T05:42:54;23.00;72.30
68011;DHT22;54794;48.348;7.878;2022-08-19T05:45:22;23.10;72.30
68011;DHT22;54794;48.348;7.878;2022-08-19T05:47:49;23.10;72.10
68011;DHT22;54794;48.348;7.878;2022-08-19T05:50:16;23.10;72.10
68011;DHT22;54794;48.348;7.878;2022-08-19T05:52:43;23.10;72.20
68011;DHT22;54794;48.348;7.878;2022-08-19T05:55:16;23.10;72.20
68011;DHT22;54794;48.348;7.878;2022-08-19T05:57:43;23.10;72.20
68011;DHT22;54794;48.348;7.878;2022-08-19T06:00:10;23.10;72.10
68011;DHT22;54794;48.348;7.878;2022-08-19T06:02:39;23.10;71.90
68011;DHT22;54794;48.348;7.878;2022-08-19T06:05:07;23.10;72.00
68011;DHT22;54794;48.348;7.878;2022-08-19T06:07:36;23.10;72.10
68011;DHT22;54794;48.348;7.878;2022-08-19T06:10:05;23.10;72.20
68011;DHT22;54794;48.348;7.878;2022-08-19T06:12:36;23.10;72.30
68011;DHT22;54794;48.348;7.878;2022-08-19T06:15:10;23.20;72.30
68011;DHT22;54794;48.348;7.878;2022-08-19T06:17:40;23.20;72.50
68011;DHT22;54794;48.348;7.878;2022-08-19T06:20:10;23.20;72.50
68011;DHT22;54794;48.348;7.878;2022-08-19T06:22:45;23.20;72.50
68011;DHT22;54794;48.348;7.878;2022-08-19T06:25:19;23.20;72.60
68011;DHT22;54794;48.348;7.878;2022-08-19T06:27:46;23.30;72.40
68011;DHT22;54794;48.348;7.878;2022-08-19T06:30:33;23.30;72.30
68011;DHT22;54794;48.348;7.878;2022-08-19T06:33:00;23.30;72.30
68011;DHT22;54794;48.348;7.878;2022-08-19T06:35:27;23.30;72.30
68011;DHT22;54794;48.348;7.878;2022-08-19T06:37:55;23.30;72.30
68011;DHT22;54794;48.348;7.878;2022-08-19T06:40:23;23.30;72.30
68011;DHT22;54794;48.348;7.878;2022-08-19T06:42:50;23.40;72.30
68011;DHT22;54794;48.348;7.878;2022-08-19T06:45:22;23.40;72.60
68011;DHT22;54794;48.348;7.878;2022-08-19T06:47:50;23.40;72.10
68011;DHT22;54794;48.348;7.878;2022-08-19T06:50:21;23.40;72.20
68011;DHT22;54794;48.348;7.878;2022-08-19T06:52:51;23.30;72.00
68011;DHT22;54794;48.348;7.878;2022-08-19T06:55:19;23.40;72.20
68011;DHT22;54794;48.348;7.878;2022-08-19T06:57:46;23.30;72.00
68011;DHT22;54794;48.348;7.878;2022-08-19T07:00:15;23.30;72.00
68011;DHT22;54794;48.348;7.878;2022-08-19T07:02:43;23.40;72.10
68011;DHT22;54794;48.348;7.878;2022-08-19T07:05:18;23.40;72.10
68011;DHT22;54794;48.348;7.878;2022-08-19T07:07:45;23.40;72.00
68011;DHT22;54794;48.348;7.878;2022-08-19T07:10:13;23.40;71.90
68011;DHT22;54794;48.348;7.878;2022-08-19T07:12:40;23.40;71.90
68011;DHT22;54794;48.348;7.878;2022-08-19T07:15:07;23.40;72.00
68011;DHT22;54794;48.348;7.878;2022-08-19T07:17:37;23.40;72.00
68011;DHT22;54794;48.348;7.878;2022-08-19T07:20:07;23.40;71.90
68011;DHT22;54794;48.348;7.878;2022-08-19T07:22:39;23.50;72.00
68011;DHT22;54794;48.348;7.878;2022-08-19T07:25:08;23.40;71.90
68011;DHT22;54794;48.348;7.878;2022-08-19T07:27:37;23.50;72.00
68011;DHT22;54794;48.348;7.878;2022-08-19T07:30:06;23.50;72.00
68011;DHT22;54794;48.348;7.878;2022-08-19T07:32:39;23.50;72.10
68011;DHT22;54794;48.348;7.878;2022-08-19T07:35:07;23.50;72.80
68011;DHT22;54794;48.348;7.878;2022-08-19T07:37:36;23.60;72.40
68011;DHT22;54794;48.348;7.878;2022-08-19T07:40:07;23.60;72.10
68011;DHT22;54794;48.348;7.878;2022-08-19T07:42:35;23.60;72.00
68011;DHT22;54794;48.348;7.878;2022-08-19T07:45:04;23.60;72.00
68011;DHT22;54794;48.348;7.878;2022-08-19T07:47:33;23.70;71.90
68011;DHT22;54794;48.348;7.878;2022-08-19T07:50:16;23.70;71.80
68011;DHT22;54794;48.348;7.878;2022-08-19T07:52:45;23.70;71.70
68011;DHT22;54794;48.348;7.878;2022-08-19T07:55:16;23.70;71.70
68011;DHT22;54794;48.348;7.878;2022-08-19T07:58:08;23.70;71.50
68011;DHT22;54794;48.348;7.878;2022-08-19T08:00:35;23.80;71.70
68011;DHT22;54794;48.348;7.878;2022-08-19T08:03:02;23.80;71.50
68011;DHT22;54794;48.348;7.878;2022-08-19T08:05:29;23.80;71.50
68011;DHT22;54794;48.348;7.878;2022-08-19T08:08:20;23.90;71.50
68011;DHT22;54794;48.348;7.878;2022-08-19T08:11:03;23.90;71.50
68011;DHT22;54794;48.348;7.878;2022-08-19T08:13:34;23.90;71.50
68011;DHT22;54794;48.348;7.878;2022-08-19T08:16:03;24.00;71.40
68011;DHT22;54794;48.348;7.878;2022-08-19T08:18:35;24.00;71.60
68011;DHT22;54794;48.348;7.878;2022-08-19T08:21:08;24.10;71.50
68011;DHT22;54794;48.348;7.878;2022-08-19T08:23:35;24.10;71.50
68011;DHT22;54794;48.348;7.878;2022-08-19T08:26:05;24.20;71.60
68011;DHT22;54794;48.348;7.878;2022-08-19T08:28:32;24.20;71.60
68011;DHT22;54794;48.348;7.878;2022-08-19T08:30:59;24.30;71.70
68011;DHT22;54794;48.348;7.878;2022-08-19T08:33:28;24.30;71.40
68011;DHT22;54794;48.348;7.878;2022-08-19T08:36:10;24.30;71.20
68011;DHT22;54794;48.348;7.878;2022-08-19T08:38:38;24.40;70.90
68011;DHT22;54794;48.348;7.878;2022-08-19T08:44:32;24.50;70.70
68011;DHT22;54794;48.348;7.878;2022-08-19T08:47:16;24.50;70.80
68011;DHT22;54794;48.348;7.878;2022-08-19T08:50:00;24.60;71.00
68011;DHT22;54794;48.348;7.878;2022-08-19T08:52:37;24.70;70.60
68011;DHT22;54794;48.348;7.878;2022-08-19T08:55:32;24.70;70.50
68011;DHT22;54794;48.348;7.878;2022-08-19T08:58:11;24.80;70.40
68011;DHT22;54794;48.348;7.878;2022-08-19T09:00:46;24.80;69.60
68011;DHT22;54794;48.348;7.878;2022-08-19T09:03:23;24.80;69.40
68011;DHT22;54794;48.348;7.878;2022-08-19T09:06:12;24.80;68.50
68011;DHT22;54794;48.348;7.878;2022-08-19T09:14:53;25.00;69.30
68011;DHT22;54794;48.348;7.878;2022-08-19T09:17:28;25.00;68.90
68011;DHT22;54794;48.348;7.878;2022-08-19T09:22:48;25.10;69.10
68011;DHT22;54794;48.348;7.878;2022-08-19T09:25:19;25.20;69.10
68011;DHT22;54794;48.348;7.878;2022-08-19T09:27:55;25.20;69.00
68011;DHT22;54794;48.348;7.878;2022-08-19T09:30:41;25.20;68.80
68011;DHT22;54794;48.348;7.878;2022-08-19T09:33:08;25.20;68.20
68011;DHT22;54794;48.348;7.878;2022-08-19T09:35:35;25.30;68.50
68011;DHT22;54794;48.348;7.878;2022-08-19T09:38:19;25.30;68.40
68011;DHT22;54794;48.348;7.878;2022-08-19T09:40:46;25.30;68.70
68011;DHT22;54794;48.348;7.878;2022-08-19T09:43:14;25.30;68.80
68011;DHT22;54794;48.348;7.878;2022-08-19T09:45:59;25.30;68.60
68011;DHT22;54794;48.348;7.878;2022-08-19T09:48:26;25.40;68.50
68011;DHT22;54794;48.348;7.878;2022-08-19T09:50:53;25.40;68.20
68011;DHT22;54794;48.348;7.878;2022-08-19T09:53:20;25.40;68.20
68011;DHT22;54794;48.348;7.878;2022-08-19T09:55:50;25.50;69.00
68011;DHT22;54794;48.348;7.878;2022-08-19T09:58:17;25.50;68.20
68011;DHT22;54794;48.348;7.878;2022-08-19T10:00:50;25.60;68.70
68011;DHT22;54794;48.348;7.878;2022-08-19T10:03:17;25.70;68.80
68011;DHT22;54794;48.348;7.878;2022-08-19T10:05:44;25.80;68.50
68011;DHT22;54794;48.348;7.878;2022-08-19T10:08:22;25.90;68.80
68011;DHT22;54794;48.348;7.878;2022-08-19T10:10:53;26.00;67.80
68011;DHT22;54794;48.348;7.878;2022-08-19T10:13:26;26.00;67.60
68011;DHT22;54794;48.348;7.878;2022-08-19T10:16:04;26.10;67.20
68011;DHT22;54794;48.348;7.878;2022-08-19T10:18:37;26.10;66.60
68011;DHT22;54794;48.348;7.878;2022-08-19T10:21:45;26.10;67.10
68011;DHT22;54794;48.348;7.878;2022-08-19T10:24:06;26.20;66.70
68011;DHT22;54794;48.348;7.878;2022-08-19T10:26:38;26.30;66.90
68011;DHT22;54794;48.348;7.878;2022-08-19T10:29:08;26.30;66.70
68011;DHT22;54794;48.348;7.878;2022-08-19T10:31:36;26.30;66.20
68011;DHT22;54794;48.348;7.878;2022-08-19T10:34:23;26.30;66.10
68011;DHT22;54794;48.348;7.878;2022-08-19T10:36:54;26.30;66.00
68011;DHT22;54794;48.348;7.878;2022-08-19T10:39:28;26.40;66.30
68011;DHT22;54794;48.348;7.878;2022-08-19T10:42:07;26.40;65.80
68011;DHT22;54794;48.348;7.878;2022-08-19T10:44:36;26.40;65.60
68011;DHT22;54794;48.348;7.878;2022-08-19T10:47:04;26.40;65.50
68011;DHT22;54794;48.348;7.878;2022-08-19T10:49:50;26.40;65.10
68011;DHT22;54794;48.348;7.878;2022-08-19T10:52:39;26.40;65.10
68011;DHT22;54794;48.348;7.878;2022-08-19T10:55:21;26.40;64.80
68011;DHT22;54794;48.348;7.878;2022-08-19T10:58:17;26.40;64.90
68011;DHT22;54794;48.348;7.878;2022-08-19T11:00:55;26.40;64.30
68011;DHT22;54794;48.348;7.878;2022-08-19T11:03:26;26.40;64.80
68011;DHT22;54794;48.348;7.878;2022-08-19T11:05:59;26.40;64.60
68011;DHT22;54794;48.348;7.878;2022-08-19T11:08:27;26.40;64.70
68011;DHT22;54794;48.348;7.878;2022-08-19T11:10:54;26.50;64.80
68011;DHT22;54794;48.348;7.878;2022-08-19T11:13:24;26.50;64.70
68011;DHT22;54794;48.348;7.878;2022-08-19T11:16:08;26.50;64.40
68011;DHT22;54794;48.348;7.878;2022-08-19T11:18:41;26.50;63.30
68011;DHT22;54794;48.348;7.878;2022-08-19T11:21:31;26.60;64.70
68011;DHT22;54794;48.348;7.878;2022-08-19T11:24:04;26.50;63.50
68011;DHT22;54794;48.348;7.878;2022-08-19T11:26:42;26.60;63.80
68011;DHT22;54794;48.348;7.878;2022-08-19T11:29:12;26.60;64.10
68011;DHT22;54794;48.348;7.878;2022-08-19T11:31:43;26.60;64.10
68011;DHT22;54794;48.348;7.878;2022-08-19T11:34:17;26.60;63.70
68011;DHT22;54794;48.348;7.878;2022-08-19T11:36:47;26.60;63.50
68011;DHT22;54794;48.348;7.878;2022-08-19T11:39:18;26.60;63.80
68011;DHT22;54794;48.348;7.878;2022-08-19T11:41:46;26.60;63.50
68011;DHT22;54794;48.348;7.878;2022-08-19T11:44:14;26.60;63.50
68011;DHT22;54794;48.348;7.878;2022-08-19T11:46:42;26.70;63.80
68011;DHT22;54794;48.348;7.878;2022-08-19T11:49:18;26.70;63.60
68011;DHT22;54794;48.348;7.878;2022-08-19T11:51:47;26.70;63.30
68011;DHT22;54794;48.348;7.878;2022-08-19T11:54:17;26.60;63.40
68011;DHT22;54794;48.348;7.878;2022-08-19T11:56:44;26.70;63.30
68011;DHT22;54794;48.348;7.878;2022-08-19T11:59:13;26.70;62.90
68011;DHT22;54794;48.348;7.878;2022-08-19T12:01:40;26.70;63.30
68011;DHT22;54794;48.348;7.878;2022-08-19T12:04:09;26.70;63.20
68011;DHT22;54794;48.348;7.878;2022-08-19T12:06:39;26.70;62.80
68011;DHT22;54794;48.348;7.878;2022-08-19T12:09:09;26.70;62.40
68011;DHT22;54794;48.348;7.878;2022-08-19T12:11:38;26.70;62.40
68011;DHT22;54794;48.348;7.878;2022-08-19T12:14:09;26.70;62.40
68011;DHT22;54794;48.348;7.878;2022-08-19T12:16:40;26.80;62.60
68011;DHT22;54794;48.348;7.878;2022-08-19T12:19:16;26.80;63.50
68011;DHT22;54794;48.348;7.878;2022-08-19T12:21:48;26.90;63.70
68011;DHT22;54794;48.348;7.878;2022-08-19T12:24:16;27.00;63.80
68011;DHT22;54794;48.348;7.878;2022-08-19T12:26:49;27.20;64.50
68011;DHT22;54794;48.348;7.878;2022-08-19T12:29:19;27.40;64.70
68011;DHT22;54794;48.348;7.878;2022-08-19T12:31:50;27.60;64.50
68011;DHT22;54794;48.348;7.878;2022-08-19T12:34:17;27.90;64.30
68011;DHT22;54794;48.348;7.878;2022-08-19T12:36:46;28.20;63.30
68011;DHT22;54794;48.348;7.878;2022-08-19T12:39:15;28.50;62.60
68011;DHT22;54794;48.348;7.878;2022-08-19T12:41:43;28.60;62.10
68011;DHT22;54794;48.348;7.878;2022-08-19T12:44:21;28.90;61.90
68011;DHT22;54794;48.348;7.878;2022-08-19T12:46:58;29.00;60.30
68011;DHT22;54794;48.348;7.878;2022-08-19T12:49:28;29.10;59.70
68011;DHT22;54794;48.348;7.878;2022-08-19T12:52:16;29.20;58.90
68011;DHT22;54794;48.348;7.878;2022-08-19T12:54:49;29.40;59.60
68011;DHT22;54794;48.348;7.878;2022-08-19T12:57:24;29.50;60.00
68011;DHT22;54794;48.348;7.878;2022-08-19T13:00:11;29.60;59.90
68011;DHT22;54794;48.348;7.878;2022-08-19T13:02:42;29.90;58.30
68011;DHT22;54794;48.348;7.878;2022-08-19T13:05:17;30.00;58.90
68011;DHT22;54794;48.348;7.878;2022-08-19T13:07:54;30.20;57.50
68011;DHT22;54794;48.348;7.878;2022-08-19T13:10:27;30.40;57.40
68011;DHT22;54794;48.348;7.878;2022-08-19T13:12:57;30.50;56.20
68011;DHT22;54794;48.348;7.878;2022-08-19T13:15:26;30.70;56.10
68011;DHT22;54794;48.348;7.878;2022-08-19T13:17:55;30.70;56.40
68011;DHT22;54794;48.348;7.878;2022-08-19T13:20:23;30.80;56.00
68011;DHT22;54794;48.348;7.878;2022-08-19T13:22:51;30.80;55.60
68011;DHT22;54794;48.348;7.878;2022-08-19T13:25:18;30.80;54.80
68011;DHT22;54794;48.348;7.878;2022-08-19T13:27:47;30.70;54.50
68011;DHT22;54794;48.348;7.878;2022-08-19T13:30:17;30.70;54.00
68011;DHT22;54794;48.348;7.878;2022-08-19T13:33:04;30.50;54.00
68011;DHT22;54794;48.348;7.878;2022-08-19T13:36:00;30.40;54.40
68011;DHT22;54794;48.348;7.878;2022-08-19T13:38:28;30.30;54.30
68011;DHT22;54794;48.348;7.878;2022-08-19T13:41:04;30.20;55.00
68011;DHT22;54794;48.348;7.878;2022-08-19T13:43:36;30.10;53.70
68011;DHT22;54794;48.348;7.878;2022-08-19T13:46:09;30.00;54.70
68011;DHT22;54794;48.348;7.878;2022-08-19T13:48:40;30.00;54.70
68011;DHT22;54794;48.348;7.878;2022-08-19T13:51:08;30.10;56.00
68011;DHT22;54794;48.348;7.878;2022-08-19T13:53:38;30.20;56.10
68011;DHT22;54794;48.348;7.878;2022-08-19T13:56:08;30.40;56.10
68011;DHT22;54794;48.348;7.878;2022-08-19T13:58:37;30.50;54.90
68011;DHT22;54794;48.348;7.878;2022-08-19T14:01:05;30.60;54.40
68011;DHT22;54794;48.348;7.878;2022-08-19T14:03:33;30.70;53.70
68011;DHT22;54794;48.348;7.878;2022-08-19T14:06:01;30.80;53.20
68011;DHT22;54794;48.348;7.878;2022-08-19T14:08:28;30.80;52.70
68011;DHT22;54794;48.348;7.878;2022-08-19T14:10:59;30.80;52.10
68011;DHT22;54794;48.348;7.878;2022-08-19T14:13:32;30.70;52.10
68011;DHT22;54794;48.348;7.878;2022-08-19T14:16:00;30.60;51.70
68011;DHT22;54794;48.348;7.878;2022-08-19T14:18:27;30.60;51.60
68011;DHT22;54794;48.348;7.878;2022-08-19T14:20:56;30.50;51.70
68011;DHT22;54794;48.348;7.878;2022-08-19T14:23:24;30.40;51.40
68011;DHT22;54794;48.348;7.878;2022-08-19T14:25:51;30.30;51.20
68011;DHT22;54794;48.348;7.878;2022-08-19T14:28:18;30.20;51.50
68011;DHT22;54794;48.348;7.878;2022-08-19T14:30:45;30.00;51.50
68011;DHT22;54794;48.348;7.878;2022-08-19T14:33:12;30.00;51.30
68011;DHT22;54794;48.348;7.878;2022-08-19T14:35:40;29.90;51.30
68011;DHT22;54794;48.348;7.878;2022-08-19T14:38:16;29.70;51.70
68011;DHT22;54794;48.348;7.878;2022-08-19T14:41:08;29.70;51.00
68011;DHT22;54794;48.348;7.878;2022-08-19T14:43:43;29.60;51.30
68011;DHT22;54794;48.348;7.878;2022-08-19T14:46:16;29.50;51.80
68011;DHT22;54794;48.348;7.878;2022-08-19T14:48:47;29.40;51.70
68011;DHT22;54794;48.348;7.878;2022-08-19T14:51:20;29.30;51.60
68011;DHT22;54794;48.348;7.878;2022-08-19T14:53:48;29.30;51.40
68011;DHT22;54794;48.348;7.878;2022-08-19T14:56:19;29.20;51.60
68011;DHT22;54794;48.348;7.878;2022-08-19T14:58:49;29.10;51.40
68011;DHT22;54794;48.348;7.878;2022-08-19T15:01:22;29.10;51.70
68011;DHT22;54794;48.348;7.878;2022-08-19T15:03:50;29.00;51.60
68011;DHT22;54794;48.348;7.878;2022-08-19T15:06:20;28.90;51.90
68011;DHT22;54794;48.348;7.878;2022-08-19T15:08:48;28.90;52.00
68011;DHT22;54794;48.348;7.878;2022-08-19T15:11:19;28.80;52.30
68011;DHT22;54794;48.348;7.878;2022-08-19T15:13:50;28.80;52.20
68011;DHT22;54794;48.348;7.878;2022-08-19T15:16:18;28.80;52.40
68011;DHT22;54794;48.348;7.878;2022-08-19T15:18:49;28.80;52.30
68011;DHT22;54794;48.348;7.878;2022-08-19T15:21:18;28.90;52.30
68011;DHT22;54794;48.348;7.878;2022-08-19T15:23:54;28.90;52.20
68011;DHT22;54794;48.348;7.878;2022-08-19T15:26:22;29.00;52.10
68011;DHT22;54794;48.348;7.878;2022-08-19T15:28:49;29.00;52.40
68011;DHT22;54794;48.348;7.878;2022-08-19T15:31:18;29.00;52.20
68011;DHT22;54794;48.348;7.878;2022-08-19T15:33:56;29.10;52.20
68011;DHT22;54794;48.348;7.878;2022-08-19T15:36:24;29.10;52.10
68011;DHT22;54794;48.348;7.878;2022-08-19T15:38:53;29.20;51.60
68011;DHT22;54794;48.348;7.878;2022-08-19T15:41:29;29.20;51.80
68011;DHT22;54794;48.348;7.878;2022-08-19T15:44:03;29.20;50.90
68011;DHT22;54794;48.348;7.878;2022-08-19T15:46:38;29.20;51.20
68011;DHT22;54794;48.348;7.878;2022-08-19T15:49:07;29.20;51.50
68011;DHT22;54794;48.348;7.878;2022-08-19T15:51:35;29.10;51.00
68011;DHT22;54794;48.348;7.878;2022-08-19T15:54:07;29.20;51.20
68011;DHT22;54794;48.348;7.878;2022-08-19T15:56:37;29.20;50.60
68011;DHT22;54794;48.348;7.878;2022-08-19T15:59:25;29.10;50.50
68011;DHT22;54794;48.348;7.878;2022-08-19T16:02:15;29.10;50.70
68011;DHT22;54794;48.348;7.878;2022-08-19T16:05:05;29.10;50.30
68011;DHT22;54794;48.348;7.878;2022-08-19T16:07:52;29.00;50.40
68011;DHT22;54794;48.348;7.878;2022-08-19T16:10:20;28.90;50.30
68011;DHT22;54794;48.348;7.878;2022-08-19T16:12:54;28.80;50.60
68011;DHT22;54794;48.348;7.878;2022-08-19T16:15:24;28.80;51.20